createdAt,value
2018-09-09T00:00:09.759Z,1006.83
2018-09-09T00:01:09.743Z,1006.82
2018-09-09T00:02:09.710Z,1006.82
2018-09-09T00:03:09.686Z,1006.81
2018-09-09T00:04:09.659Z,1006.85
2018-09-09T00:05:09.636Z,1006.84
2018-09-09T00:06:09.609Z,1006.84
2018-09-09T00:07:09.588Z,1006.86
2018-09-09T00:08:09.558Z,1006.84
2018-09-09T00:09:09.537Z,1006.83
2018-09-09T00:10:09.507Z,1006.84
2018-09-09T00:11:09.480Z,1006.82
2018-09-09T00:12:09.460Z,1006.78
2018-09-09T00:13:09.435Z,1006.78
2018-09-09T00:14:09.413Z,1006.78
2018-09-09T00:15:09.387Z,1006.79
2018-09-09T00:16:09.355Z,1006.82
2018-09-09T00:17:09.334Z,1006.77
2018-09-09T00:18:09.304Z,1006.81
2018-09-09T00:19:09.283Z,1006.77
2018-09-09T00:20:09.262Z,1006.81
2018-09-09T00:21:09.230Z,1006.78
2018-09-09T00:22:09.208Z,1006.79
2018-09-09T00:23:09.176Z,1006.75
2018-09-09T00:24:09.155Z,1006.72
2018-09-09T00:25:09.126Z,1006.72
2018-09-09T00:26:09.105Z,1006.66
2018-09-09T00:27:09.072Z,1006.68
2018-09-09T00:28:09.057Z,1006.72
2018-09-09T00:29:09.028Z,1006.74
2018-09-09T00:30:09.000Z,1006.75
2018-09-09T00:31:08.978Z,1006.75
2018-09-09T00:32:08.945Z,1006.74
2018-09-09T00:33:08.921Z,1006.74
2018-09-09T00:34:08.903Z,1006.75
2018-09-09T00:35:08.875Z,1006.79
2018-09-09T00:36:08.850Z,1006.74
2018-09-09T00:37:08.822Z,1006.71
2018-09-09T00:38:08.798Z,1006.67
2018-09-09T00:39:08.778Z,1006.71
2018-09-09T00:40:08.747Z,1006.70
2018-09-09T00:41:08.720Z,1006.68
2018-09-09T00:42:08.697Z,1006.72
2018-09-09T00:43:08.667Z,1006.67
2018-09-09T00:44:08.644Z,1006.66
2018-09-09T00:45:08.638Z,1006.70
2018-09-09T00:46:08.590Z,1006.73
2018-09-09T00:47:08.567Z,1006.77
2018-09-09T00:48:08.540Z,1006.82
2018-09-09T00:49:08.512Z,1006.88
2018-09-09T00:50:08.495Z,1006.82
2018-09-09T00:51:08.467Z,1006.72
2018-09-09T00:52:08.438Z,1006.67
2018-09-09T00:53:08.411Z,1006.66
2018-09-09T00:54:08.396Z,1006.63
2018-09-09T00:55:08.363Z,1006.69
2018-09-09T00:56:08.339Z,1006.68
2018-09-09T00:57:08.316Z,1006.68
2018-09-09T00:58:08.284Z,1006.73
2018-09-09T00:59:08.259Z,1006.79
2018-09-09T01:00:08.241Z,1006.81
2018-09-09T01:01:08.209Z,1006.77
2018-09-09T01:02:08.191Z,1006.71
2018-09-09T01:03:08.173Z,1006.72
2018-09-09T01:04:08.132Z,1006.71
2018-09-09T01:05:08.115Z,1006.75
2018-09-09T01:06:08.081Z,1006.78
2018-09-09T01:07:08.056Z,1006.83
2018-09-09T01:08:08.034Z,1006.80
2018-09-09T01:09:08.008Z,1006.79
2018-09-09T01:10:07.977Z,1006.84
2018-09-09T01:11:07.957Z,1006.81
2018-09-09T01:12:07.930Z,1006.78
2018-09-09T01:13:07.907Z,1006.75
2018-09-09T01:14:07.879Z,1006.71
2018-09-09T01:15:07.852Z,1006.73
2018-09-09T01:16:07.832Z,1006.71
2018-09-09T01:17:07.803Z,1006.68
2018-09-09T01:18:07.779Z,1006.69
2018-09-09T01:19:07.753Z,1006.72
2018-09-09T01:20:07.726Z,1006.69
2018-09-09T01:21:07.704Z,1006.73
2018-09-09T01:22:07.676Z,1006.68
2018-09-09T01:23:07.647Z,1006.69
2018-09-09T01:24:07.629Z,1006.72
2018-09-09T01:25:07.604Z,1006.69
2018-09-09T01:26:07.569Z,1006.67
2018-09-09T01:27:07.543Z,1006.62
2018-09-09T01:28:07.527Z,1006.62
2018-09-09T01:29:07.500Z,1006.60
2018-09-09T01:30:07.470Z,1006.58
2018-09-09T01:31:07.445Z,1006.59
2018-09-09T01:32:07.421Z,1006.50
2018-09-09T01:33:07.394Z,1006.56
2018-09-09T01:34:07.373Z,1006.57
2018-09-09T01:35:07.347Z,1006.59
2018-09-09T01:36:07.324Z,1006.58
2018-09-09T01:37:07.291Z,1006.55
2018-09-09T01:38:07.266Z,1006.54
2018-09-09T01:39:07.242Z,1006.49
2018-09-09T01:40:07.215Z,1006.49
2018-09-09T01:41:07.189Z,1006.58
2018-09-09T01:42:07.171Z,1006.56
2018-09-09T01:43:07.146Z,1006.55
2018-09-09T01:44:07.112Z,1006.58
2018-09-09T01:45:07.089Z,1006.62
2018-09-09T01:46:07.065Z,1006.64
2018-09-09T01:47:07.033Z,1006.74
2018-09-09T01:48:07.018Z,1006.76
2018-09-09T01:49:06.989Z,1006.79
2018-09-09T01:50:06.967Z,1006.76
2018-09-09T01:51:06.942Z,1006.77
2018-09-09T01:52:06.913Z,1006.78
2018-09-09T01:53:06.890Z,1006.81
2018-09-09T01:54:06.862Z,1006.84
2018-09-09T01:55:06.832Z,1006.86
2018-09-09T01:56:06.816Z,1006.86
2018-09-09T01:57:06.785Z,1006.87
2018-09-09T01:58:06.759Z,1006.88
2018-09-09T01:59:06.732Z,1006.87
2018-09-09T02:00:06.711Z,1006.85
2018-09-09T02:01:06.677Z,1006.81
2018-09-09T02:02:06.661Z,1006.82
2018-09-09T02:03:06.635Z,1006.80
2018-09-09T02:04:06.602Z,1006.81
2018-09-09T02:05:06.592Z,1006.79
2018-09-09T02:06:06.552Z,1006.79
2018-09-09T02:07:06.530Z,1006.80
2018-09-09T02:08:06.503Z,1006.82
2018-09-09T02:09:06.481Z,1006.85
2018-09-09T02:10:06.451Z,1006.83
2018-09-09T02:11:06.430Z,1006.83
2018-09-09T02:12:06.400Z,1006.85
2018-09-09T02:13:06.377Z,1006.84
2018-09-09T02:14:06.348Z,1006.84
2018-09-09T02:15:06.328Z,1006.81
2018-09-09T02:16:06.294Z,1006.81
2018-09-09T02:17:06.277Z,1006.81
2018-09-09T02:18:06.244Z,1006.81
2018-09-09T02:19:06.224Z,1006.82
2018-09-09T02:20:06.194Z,1006.82
2018-09-09T02:21:06.168Z,1006.79
2018-09-09T02:22:06.152Z,1006.78
2018-09-09T02:23:06.124Z,1006.82
2018-09-09T02:24:06.090Z,1006.80
2018-09-09T02:25:06.067Z,1006.77
2018-09-09T02:26:06.046Z,1006.80
2018-09-09T02:27:06.022Z,1006.80
2018-09-09T02:28:05.991Z,1006.81
2018-09-09T02:29:05.968Z,1006.80
2018-09-09T02:30:05.997Z,1006.80
2018-09-09T02:31:05.919Z,1006.79
2018-09-09T02:32:05.890Z,1006.82
2018-09-09T02:33:05.862Z,1006.79
2018-09-09T02:34:05.848Z,1006.78
2018-09-09T02:35:05.812Z,1006.75
2018-09-09T02:36:05.785Z,1006.79
2018-09-09T02:37:05.763Z,1006.75
2018-09-09T02:38:05.738Z,1006.74
2018-09-09T02:39:05.715Z,1006.70
2018-09-09T02:40:05.686Z,1006.74
2018-09-09T02:41:05.661Z,1006.70
2018-09-09T02:42:05.634Z,1006.71
2018-09-09T02:43:05.605Z,1006.71
2018-09-09T02:44:05.590Z,1006.72
2018-09-09T02:45:05.555Z,1006.71
2018-09-09T02:46:05.539Z,1006.67
2018-09-09T02:47:05.510Z,1006.70
2018-09-09T02:48:05.480Z,1006.72
2018-09-09T02:49:05.460Z,1006.74
2018-09-09T02:50:05.429Z,1006.75
2018-09-09T02:51:05.401Z,1006.78
2018-09-09T02:52:05.385Z,1006.82
2018-09-09T02:53:05.356Z,1006.83
2018-09-09T02:54:05.329Z,1006.83
2018-09-09T02:55:05.303Z,1006.84
2018-09-09T02:56:05.279Z,1006.86
2018-09-09T02:57:05.252Z,1006.86
2018-09-09T02:58:05.230Z,1006.86
2018-09-09T02:59:05.206Z,1006.84
2018-09-09T03:00:05.175Z,1006.81
2018-09-09T03:01:05.156Z,1006.81
2018-09-09T03:02:05.122Z,1006.73
2018-09-09T03:03:05.096Z,1006.76
2018-09-09T03:04:05.077Z,1006.73
2018-09-09T03:05:05.046Z,1006.77
2018-09-09T03:06:05.028Z,1006.86
2018-09-09T03:07:05.001Z,1006.84
2018-09-09T03:08:04.967Z,1006.85
2018-09-09T03:09:04.949Z,1006.89
2018-09-09T03:10:04.917Z,1006.89
2018-09-09T03:11:04.895Z,1006.91
2018-09-09T03:12:04.878Z,1006.87
2018-09-09T03:13:04.844Z,1006.87
2018-09-09T03:14:04.817Z,1006.83
2018-09-09T03:15:04.793Z,1006.82
2018-09-09T03:16:04.765Z,1006.80
2018-09-09T03:17:04.742Z,1006.78
2018-09-09T03:18:04.714Z,1006.72
2018-09-09T03:19:04.696Z,1006.73
2018-09-09T03:20:04.659Z,1006.65
2018-09-09T03:21:04.643Z,1006.67
2018-09-09T03:22:04.613Z,1006.61
2018-09-09T03:23:04.590Z,1006.59
2018-09-09T03:24:04.563Z,1006.63
2018-09-09T03:25:04.538Z,1006.66
2018-09-09T03:26:04.518Z,1006.71
2018-09-09T03:27:04.492Z,1006.75
2018-09-09T03:28:04.456Z,1006.72
2018-09-09T03:29:04.433Z,1006.70
2018-09-09T03:30:04.410Z,1006.67
2018-09-09T03:31:04.382Z,1006.64
2018-09-09T03:32:04.364Z,1006.60
2018-09-09T03:33:04.340Z,1006.57
2018-09-09T03:34:04.303Z,1006.54
2018-09-09T03:35:04.278Z,1006.54
2018-09-09T03:36:04.260Z,1006.51
2018-09-09T03:37:04.233Z,1006.57
2018-09-09T03:38:04.205Z,1006.61
2018-09-09T03:39:04.189Z,1006.63
2018-09-09T03:40:04.149Z,1006.54
2018-09-09T03:41:04.128Z,1006.47
2018-09-09T03:42:04.106Z,1006.44
2018-09-09T03:43:04.082Z,1006.37
2018-09-09T03:44:04.050Z,1006.36
2018-09-09T03:45:04.027Z,1006.34
2018-09-09T03:46:04.000Z,1006.38
2018-09-09T03:47:03.973Z,1006.42
2018-09-09T03:48:03.955Z,1006.46
2018-09-09T03:49:03.925Z,1006.55
2018-09-09T03:50:03.899Z,1006.55
2018-09-09T03:51:03.880Z,1006.61
2018-09-09T03:52:03.846Z,1006.64
2018-09-09T03:53:03.820Z,1006.68
2018-09-09T03:54:03.801Z,1006.74
2018-09-09T03:55:03.770Z,1006.76
2018-09-09T03:56:03.757Z,1006.78
2018-09-09T03:57:03.722Z,1006.82
2018-09-09T03:58:03.698Z,1006.85
2018-09-09T03:59:03.667Z,1006.87
2018-09-09T04:00:03.643Z,1006.87
2018-09-09T04:01:03.615Z,1006.86
2018-09-09T04:02:03.594Z,1006.87
2018-09-09T04:03:03.567Z,1006.87
2018-09-09T04:04:03.542Z,1006.82
2018-09-09T04:05:03.514Z,1006.82
2018-09-09T04:06:03.490Z,1006.82
2018-09-09T04:07:03.466Z,1006.79
2018-09-09T04:08:03.438Z,1006.79
2018-09-09T04:09:03.412Z,1006.82
2018-09-09T04:10:03.459Z,1006.82
2018-09-09T04:11:03.372Z,1006.81
2018-09-09T04:12:03.339Z,1006.81
2018-09-09T04:13:03.311Z,1006.80
2018-09-09T04:14:03.282Z,1006.79
2018-09-09T04:15:03.262Z,1006.80
2018-09-09T04:16:03.234Z,1006.74
2018-09-09T04:17:03.211Z,1006.76
2018-09-09T04:18:03.179Z,1006.75
2018-09-09T04:19:03.160Z,1006.72
2018-09-09T04:20:03.136Z,1006.67
2018-09-09T04:21:03.104Z,1006.68
2018-09-09T04:22:03.081Z,1006.67
2018-09-09T04:23:03.055Z,1006.65
2018-09-09T04:24:03.028Z,1006.66
2018-09-09T04:25:03.000Z,1006.65
2018-09-09T04:26:02.984Z,1006.63
2018-09-09T04:27:02.951Z,1006.60
2018-09-09T04:28:02.930Z,1006.63
2018-09-09T04:29:02.905Z,1006.63
2018-09-09T04:30:02.876Z,1006.60
2018-09-09T04:31:02.896Z,1006.60
2018-09-09T04:32:02.827Z,1006.66
2018-09-09T04:33:02.794Z,1006.64
2018-09-09T04:34:02.785Z,1006.69
2018-09-09T04:35:02.742Z,1006.67
2018-09-09T04:36:02.724Z,1006.69
2018-09-09T04:37:02.693Z,1006.68
2018-09-09T04:38:02.675Z,1006.74
2018-09-09T04:39:02.642Z,1006.71
2018-09-09T04:40:02.621Z,1006.70
2018-09-09T04:41:02.590Z,1006.71
2018-09-09T04:42:02.568Z,1006.71
2018-09-09T04:43:02.593Z,1006.74
2018-09-09T04:44:02.520Z,1006.74
2018-09-09T04:45:02.493Z,1006.73
2018-09-09T04:46:02.463Z,1006.78
2018-09-09T04:47:02.441Z,1006.75
2018-09-09T04:48:02.419Z,1006.75
2018-09-09T04:49:02.398Z,1006.80
2018-09-09T04:50:02.363Z,1006.78
2018-09-09T04:51:02.345Z,1006.81
2018-09-09T04:52:02.311Z,1006.82
2018-09-09T04:53:02.284Z,1006.81
2018-09-09T04:54:02.263Z,1006.81
2018-09-09T04:55:02.238Z,1006.86
2018-09-09T04:56:02.209Z,1006.83
2018-09-09T04:57:02.180Z,1006.84
2018-09-09T04:58:02.163Z,1006.87
2018-09-09T04:59:02.133Z,1006.82
2018-09-09T05:00:02.107Z,1006.86
2018-09-09T05:01:02.078Z,1006.84
2018-09-09T05:02:02.058Z,1006.87
2018-09-09T05:03:02.030Z,1006.88
2018-09-09T05:04:02.011Z,1006.88
2018-09-09T05:05:01.981Z,1006.90
2018-09-09T05:06:01.957Z,1006.93
2018-09-09T05:07:01.927Z,1006.97
2018-09-09T05:08:01.908Z,1006.96
2018-09-09T05:09:01.885Z,1006.93
2018-09-09T05:10:01.850Z,1006.88
2018-09-09T05:11:01.823Z,1006.90
2018-09-09T05:12:01.803Z,1006.89
2018-09-09T05:13:01.780Z,1006.90
2018-09-09T05:14:01.744Z,1006.91
2018-09-09T05:15:01.720Z,1006.96
2018-09-09T05:16:01.703Z,1006.97
2018-09-09T05:17:01.668Z,1006.96
2018-09-09T05:18:01.644Z,1006.97
2018-09-09T05:19:01.624Z,1007.02
2018-09-09T05:20:01.596Z,1007.04
2018-09-09T05:21:01.574Z,1006.98
2018-09-09T05:22:01.538Z,1007.01
2018-09-09T05:23:01.521Z,1006.92
2018-09-09T05:24:01.489Z,1006.94
2018-09-09T05:25:01.464Z,1006.94
2018-09-09T05:26:01.446Z,1006.95
2018-09-09T05:27:01.417Z,1006.95
2018-09-09T05:28:01.388Z,1007.03
2018-09-09T05:29:01.360Z,1007.05
2018-09-09T05:30:01.345Z,1007.02
2018-09-09T05:31:01.313Z,1007.05
2018-09-09T05:32:01.289Z,1007.04
2018-09-09T05:33:01.267Z,1007.04
2018-09-09T05:34:01.241Z,1007.06
2018-09-09T05:35:01.219Z,1007.09
2018-09-09T05:36:01.191Z,1007.09
2018-09-09T05:37:01.156Z,1007.10
2018-09-09T05:38:01.139Z,1007.03
2018-09-09T05:39:01.109Z,1007.05
2018-09-09T05:40:01.090Z,1006.98
2018-09-09T05:41:01.062Z,1007.00
2018-09-09T05:42:01.031Z,1006.96
2018-09-09T05:43:01.010Z,1006.98
2018-09-09T05:44:00.980Z,1007.00
2018-09-09T05:45:00.959Z,1006.98
2018-09-09T05:46:00.931Z,1007.01
2018-09-09T05:47:00.898Z,1007.01
2018-09-09T05:48:00.883Z,1007.01
2018-09-09T05:49:00.855Z,1007.00
2018-09-09T05:50:00.833Z,1007.02
2018-09-09T05:51:00.866Z,1007.06
2018-09-09T05:52:00.777Z,1007.08
2018-09-09T05:53:00.757Z,1007.11
2018-09-09T05:54:00.776Z,1007.17
2018-09-09T05:55:00.703Z,1007.18
2018-09-09T05:56:00.670Z,1007.21
2018-09-09T05:57:00.652Z,1007.21
2018-09-09T05:58:00.635Z,1007.22
2018-09-09T05:59:00.598Z,1007.21
2018-09-09T06:00:00.569Z,1007.22
2018-09-09T06:01:00.548Z,1007.25
2018-09-09T06:02:00.522Z,1007.28
2018-09-09T06:03:00.492Z,1007.29
2018-09-09T06:04:00.472Z,1007.32
2018-09-09T06:05:00.443Z,1007.38
2018-09-09T06:06:00.421Z,1007.36
2018-09-09T06:07:00.393Z,1007.40
2018-09-09T06:08:00.382Z,1007.41
2018-09-09T06:09:00.371Z,1007.44
2018-09-09T06:10:00.318Z,1007.49
2018-09-09T06:11:00.296Z,1007.50
2018-09-09T06:12:00.389Z,1007.47
2018-09-09T06:13:00.235Z,1007.46
2018-09-09T06:14:00.264Z,1007.45
2018-09-09T06:15:00.193Z,1007.43
2018-09-09T06:16:00.791Z,1007.45
2018-09-09T06:17:00.138Z,1007.47
2018-09-09T06:18:00.115Z,1007.49
2018-09-09T06:19:00.089Z,1007.50
2018-09-09T06:20:00.061Z,1007.54
2018-09-09T06:21:00.034Z,1007.50
2018-09-09T06:22:00.013Z,1007.52
2018-09-09T06:22:59.989Z,1007.53
2018-09-09T06:23:59.954Z,1007.60
2018-09-09T06:24:59.938Z,1007.58
2018-09-09T06:25:59.906Z,1007.56
2018-09-09T06:26:59.880Z,1007.54
2018-09-09T06:27:59.863Z,1007.54
2018-09-09T06:28:59.837Z,1007.57
2018-09-09T06:29:59.802Z,1007.60
2018-09-09T06:30:59.781Z,1007.57
2018-09-09T06:31:59.752Z,1007.57
2018-09-09T06:32:59.727Z,1007.59
2018-09-09T06:33:59.740Z,1007.63
2018-09-09T06:34:59.677Z,1007.58
2018-09-09T06:35:59.655Z,1007.60
2018-09-09T06:36:59.632Z,1007.65
2018-09-09T06:37:59.604Z,1007.59
2018-09-09T06:38:59.610Z,1007.60
2018-09-09T06:39:59.590Z,1007.59
2018-09-09T06:40:59.520Z,1007.57
2018-09-09T06:41:59.505Z,1007.61
2018-09-09T06:42:59.473Z,1007.61
2018-09-09T06:43:59.453Z,1007.60
2018-09-09T06:44:59.428Z,1007.61
2018-09-09T06:45:59.472Z,1007.65
2018-09-09T06:46:59.377Z,1007.65
2018-09-09T06:47:59.349Z,1007.64
2018-09-09T06:48:59.327Z,1007.60
2018-09-09T06:49:59.295Z,1007.59
2018-09-09T06:50:59.273Z,1007.65
2018-09-09T06:51:59.244Z,1007.63
2018-09-09T06:52:59.222Z,1007.63
2018-09-09T06:53:59.196Z,1007.62
2018-09-09T06:54:59.205Z,1007.59
2018-09-09T06:55:59.182Z,1007.61
2018-09-09T06:56:59.123Z,1007.60
2018-09-09T06:57:59.091Z,1007.58
2018-09-09T06:58:59.072Z,1007.56
2018-09-09T06:59:59.039Z,1007.55
2018-09-09T07:00:59.022Z,1007.56
2018-09-09T07:01:58.987Z,1007.56
2018-09-09T07:02:58.970Z,1007.59
2018-09-09T07:03:58.940Z,1007.61
2018-09-09T07:04:58.922Z,1007.56
2018-09-09T07:05:58.890Z,1007.60
2018-09-09T07:06:58.869Z,1007.58
2018-09-09T07:07:58.838Z,1007.56
2018-09-09T07:08:58.823Z,1007.52
2018-09-09T07:09:58.809Z,1007.54
2018-09-09T07:10:58.880Z,1007.52
2018-09-09T07:11:58.900Z,1007.54
2018-09-09T07:12:58.709Z,1007.53
2018-09-09T07:13:58.695Z,1007.55
2018-09-09T07:14:58.663Z,1007.59
2018-09-09T07:15:58.651Z,1007.62
2018-09-09T07:16:58.645Z,1007.62
2018-09-09T07:17:58.586Z,1007.67
2018-09-09T07:18:58.619Z,1007.66
2018-09-09T07:19:58.538Z,1007.62
2018-09-09T07:20:58.515Z,1007.65
2018-09-09T07:21:58.482Z,1007.67
2018-09-09T07:22:58.464Z,1007.64
2018-09-09T07:23:58.434Z,1007.72
2018-09-09T07:24:58.409Z,1007.68
2018-09-09T07:25:58.382Z,1007.73
2018-09-09T07:26:58.364Z,1007.74
2018-09-09T07:27:58.329Z,1007.69
2018-09-09T07:28:58.326Z,1007.71
2018-09-09T07:29:58.282Z,1007.69
2018-09-09T07:30:58.261Z,1007.76
2018-09-09T07:31:58.235Z,1007.73
2018-09-09T07:32:58.208Z,1007.73
2018-09-09T07:33:58.188Z,1007.74
2018-09-09T07:34:58.164Z,1007.77
2018-09-09T07:35:58.131Z,1007.81
2018-09-09T07:36:58.114Z,1007.80
2018-09-09T07:37:58.083Z,1007.78
2018-09-09T07:38:58.054Z,1007.82
2018-09-09T07:39:58.082Z,1007.83
2018-09-09T07:40:58.015Z,1007.83
2018-09-09T07:41:57.984Z,1007.80
2018-09-09T07:42:57.952Z,1007.81
2018-09-09T07:43:57.936Z,1007.81
2018-09-09T07:44:57.901Z,1007.82
2018-09-09T07:45:57.886Z,1007.80
2018-09-09T07:46:57.859Z,1007.81
2018-09-09T07:47:57.843Z,1007.83
2018-09-09T07:48:57.807Z,1007.84
2018-09-09T07:49:57.780Z,1007.89
2018-09-09T07:50:57.754Z,1007.89
2018-09-09T07:51:57.737Z,1007.86
2018-09-09T07:52:57.708Z,1007.88
2018-09-09T07:53:57.681Z,1007.86
2018-09-09T07:54:57.657Z,1007.90
2018-09-09T07:55:57.628Z,1007.87
2018-09-09T07:56:57.606Z,1007.88
2018-09-09T07:57:57.580Z,1007.88
2018-09-09T07:58:57.558Z,1007.85
2018-09-09T07:59:57.526Z,1007.89
2018-09-09T08:00:57.510Z,1007.88
2018-09-09T08:01:57.477Z,1007.88
2018-09-09T08:02:57.458Z,1007.89
2018-09-09T08:03:57.427Z,1007.86
2018-09-09T08:04:57.409Z,1007.85
2018-09-09T08:05:57.375Z,1007.92
2018-09-09T08:06:57.354Z,1007.88
2018-09-09T08:07:57.338Z,1007.88
2018-09-09T08:08:57.305Z,1007.90
2018-09-09T08:09:57.280Z,1007.89
2018-09-09T08:10:57.258Z,1007.86
2018-09-09T08:11:57.259Z,1007.84
2018-09-09T08:12:57.202Z,1007.86
2018-09-09T08:13:57.181Z,1007.90
2018-09-09T08:14:57.174Z,1007.93
2018-09-09T08:15:57.128Z,1007.93
2018-09-09T08:16:57.100Z,1007.94
2018-09-09T08:17:57.085Z,1007.96
2018-09-09T08:18:57.055Z,1007.96
2018-09-09T08:19:57.032Z,1007.92
2018-09-09T08:20:57.000Z,1007.97
2018-09-09T08:21:56.987Z,1007.96
2018-09-09T08:22:56.959Z,1007.96
2018-09-09T08:23:56.929Z,1007.95
2018-09-09T08:24:56.906Z,1007.96
2018-09-09T08:25:56.882Z,1007.97
2018-09-09T08:26:56.862Z,1007.96
2018-09-09T08:27:56.825Z,1007.95
2018-09-09T08:28:56.804Z,1007.98
2018-09-09T08:29:56.802Z,1007.99
2018-09-09T08:30:56.753Z,1007.99
2018-09-09T08:31:56.734Z,1007.97
2018-09-09T08:32:56.709Z,1007.96
2018-09-09T08:33:56.679Z,1007.93
2018-09-09T08:34:56.724Z,1007.94
2018-09-09T08:35:56.631Z,1007.95
2018-09-09T08:36:56.615Z,1007.98
2018-09-09T08:37:56.582Z,1008.02
2018-09-09T08:38:56.561Z,1007.98
2018-09-09T08:39:56.528Z,1007.96
2018-09-09T08:40:56.513Z,1007.98
2018-09-09T08:41:56.480Z,1007.99
2018-09-09T08:42:56.453Z,1007.96
2018-09-09T08:43:56.439Z,1007.95
2018-09-09T08:44:56.409Z,1008.03
2018-09-09T08:45:56.383Z,1008.01
2018-09-09T08:46:56.364Z,1008.05
2018-09-09T08:47:56.335Z,1008.05
2018-09-09T08:48:56.315Z,1008.02
2018-09-09T08:49:56.282Z,1007.98
2018-09-09T08:50:56.256Z,1007.98
2018-09-09T08:51:56.322Z,1008.02
2018-09-09T08:52:56.217Z,1008.01
2018-09-09T08:53:56.181Z,1008.01
2018-09-09T08:54:56.157Z,1008.03
2018-09-09T08:55:56.140Z,1008.01
2018-09-09T08:56:56.119Z,1007.98
2018-09-09T08:57:56.085Z,1008.04
2018-09-09T08:58:56.062Z,1008.02
2018-09-09T08:59:56.032Z,1008.08
2018-09-09T09:00:56.060Z,1008.08
2018-09-09T09:01:55.990Z,1008.04
2018-09-09T09:02:55.961Z,1008.18
2018-09-09T09:03:55.944Z,1008.14
2018-09-09T09:04:55.914Z,1008.07
2018-09-09T09:05:55.888Z,1008.12
2018-09-09T09:06:55.869Z,1008.16
2018-09-09T09:07:55.881Z,1008.14
2018-09-09T09:08:55.817Z,1008.14
2018-09-09T09:09:55.833Z,1008.12
2018-09-09T09:10:55.774Z,1008.13
2018-09-09T09:11:55.739Z,1008.17
2018-09-09T09:12:55.723Z,1008.15
2018-09-09T09:13:55.686Z,1008.13
2018-09-09T09:14:55.753Z,1008.14
2018-09-09T09:15:55.650Z,1008.09
2018-09-09T09:16:55.623Z,1008.02
2018-09-09T09:17:55.668Z,1008.06
2018-09-09T09:18:55.574Z,1008.04
2018-09-09T09:19:55.547Z,1008.03
2018-09-09T09:20:55.527Z,1008.00
2018-09-09T09:21:55.499Z,1008.06
2018-09-09T09:22:55.467Z,1008.02
2018-09-09T09:23:55.449Z,1008.02
2018-09-09T09:24:55.420Z,1007.97
2018-09-09T09:25:55.398Z,1008.02
2018-09-09T09:26:55.367Z,1007.98
2018-09-09T09:27:55.353Z,1008.01
2018-09-09T09:28:55.321Z,1007.98
2018-09-09T09:29:55.305Z,1007.99
2018-09-09T09:30:55.280Z,1007.96
2018-09-09T09:31:55.257Z,1007.98
2018-09-09T09:32:55.232Z,1008.00
2018-09-09T09:33:55.203Z,1008.00
2018-09-09T09:34:55.178Z,1007.96
2018-09-09T09:35:55.158Z,1007.95
2018-09-09T09:36:55.124Z,1007.93
2018-09-09T09:37:55.108Z,1007.95
2018-09-09T09:38:55.081Z,1007.97
2018-09-09T09:39:55.057Z,1007.96
2018-09-09T09:40:55.031Z,1007.96
2018-09-09T09:41:55.004Z,1007.93
2018-09-09T09:42:54.993Z,1007.94
2018-09-09T09:43:54.954Z,1007.92
2018-09-09T09:44:55.021Z,1007.94
2018-09-09T09:45:54.907Z,1007.86
2018-09-09T09:46:54.883Z,1007.88
2018-09-09T09:47:54.863Z,1007.94
2018-09-09T09:48:54.836Z,1007.91
2018-09-09T09:49:54.815Z,1007.94
2018-09-09T09:50:54.789Z,1007.92
2018-09-09T09:51:54.763Z,1007.97
2018-09-09T09:52:54.735Z,1007.97
2018-09-09T09:53:54.722Z,1007.97
2018-09-09T09:54:54.689Z,1007.99
2018-09-09T09:55:54.677Z,1007.97
2018-09-09T09:56:54.647Z,1008.03
2018-09-09T09:57:54.610Z,1008.06
2018-09-09T09:58:54.588Z,1008.12
2018-09-09T09:59:54.571Z,1008.16
2018-09-09T10:00:54.546Z,1008.10
2018-09-09T10:01:54.522Z,1008.07
2018-09-09T10:02:54.493Z,1008.07
2018-09-09T10:03:54.471Z,1008.15
2018-09-09T10:04:54.450Z,1008.12
2018-09-09T10:05:54.416Z,1008.10
2018-09-09T10:06:54.396Z,1008.06
2018-09-09T10:07:54.385Z,1008.04
2018-09-09T10:08:54.359Z,1008.04
2018-09-09T10:09:54.331Z,1008.08
2018-09-09T10:10:54.297Z,1008.08
2018-09-09T10:11:54.280Z,1008.07
2018-09-09T10:12:54.252Z,1008.07
2018-09-09T10:13:54.225Z,1008.09
2018-09-09T10:14:54.207Z,1008.06
2018-09-09T10:15:54.174Z,1008.10
2018-09-09T10:16:54.157Z,1008.14
2018-09-09T10:17:54.127Z,1008.13
2018-09-09T10:18:54.107Z,1008.12
2018-09-09T10:19:54.079Z,1008.10
2018-09-09T10:20:54.058Z,1008.08
2018-09-09T10:21:54.048Z,1008.12
2018-09-09T10:22:54.005Z,1008.11
2018-09-09T10:23:54.039Z,1008.20
2018-09-09T10:24:53.956Z,1008.18
2018-09-09T10:25:53.939Z,1008.27
2018-09-09T10:26:53.909Z,1008.13
2018-09-09T10:27:53.887Z,1008.10
2018-09-09T10:28:53.862Z,1008.19
2018-09-09T10:29:53.871Z,1008.10
2018-09-09T10:30:53.811Z,1008.09
2018-09-09T10:31:53.792Z,1008.14
2018-09-09T10:32:53.776Z,1008.18
2018-09-09T10:33:53.743Z,1008.12
2018-09-09T10:34:53.713Z,1008.17
2018-09-09T10:35:53.696Z,1008.21
2018-09-09T10:36:53.665Z,1008.22
2018-09-09T10:37:53.643Z,1008.25
2018-09-09T10:38:53.615Z,1008.17
2018-09-09T10:39:53.600Z,1008.23
2018-09-09T10:40:53.621Z,1008.23
2018-09-09T10:41:53.549Z,1008.16
2018-09-09T10:42:53.520Z,1008.25
2018-09-09T10:43:53.499Z,1008.20
2018-09-09T10:44:53.472Z,1008.20
2018-09-09T10:45:53.451Z,1008.20
2018-09-09T10:46:53.533Z,1008.17
2018-09-09T10:47:53.401Z,1008.18
2018-09-09T10:48:53.373Z,1008.14
2018-09-09T10:49:53.352Z,1008.18
2018-09-09T10:50:53.327Z,1008.21
2018-09-09T10:51:53.300Z,1008.25
2018-09-09T10:52:53.273Z,1008.22
2018-09-09T10:53:53.257Z,1008.25
2018-09-09T10:54:53.232Z,1008.30
2018-09-09T10:55:53.199Z,1008.28
2018-09-09T10:56:53.181Z,1008.26
2018-09-09T10:57:53.158Z,1008.20
2018-09-09T10:58:53.188Z,1008.23
2018-09-09T10:59:53.102Z,1008.21
2018-09-09T11:00:53.081Z,1008.37
2018-09-09T11:01:53.059Z,1008.26
2018-09-09T11:02:53.036Z,1008.26
2018-09-09T11:03:53.007Z,1008.36
2018-09-09T11:04:52.987Z,1008.30
2018-09-09T11:05:52.972Z,1008.28
2018-09-09T11:06:52.945Z,1008.25
2018-09-09T11:07:52.917Z,1008.20
2018-09-09T11:08:52.894Z,1008.29
2018-09-09T11:09:52.860Z,1008.26
2018-09-09T11:10:52.841Z,1008.19
2018-09-09T11:11:52.817Z,1008.21
2018-09-09T11:12:52.831Z,1008.23
2018-09-09T11:13:52.772Z,1008.21
2018-09-09T11:14:52.745Z,1008.19
2018-09-09T11:15:52.721Z,1008.20
2018-09-09T11:16:52.690Z,1008.16
2018-09-09T11:17:52.675Z,1008.17
2018-09-09T11:18:52.680Z,1008.19
2018-09-09T11:19:52.619Z,1008.17
2018-09-09T11:20:52.598Z,1008.19
2018-09-09T11:21:52.579Z,1008.21
2018-09-09T11:22:52.544Z,1008.31
2018-09-09T11:23:52.537Z,1008.24
2018-09-09T11:24:52.502Z,1008.21
2018-09-09T11:25:52.476Z,1008.27
2018-09-09T11:26:52.454Z,1008.25
2018-09-09T11:27:52.430Z,1008.23
2018-09-09T11:28:52.403Z,1008.21
2018-09-09T11:29:52.402Z,1008.16
2018-09-09T11:30:52.353Z,1008.12
2018-09-09T11:31:52.332Z,1008.10
2018-09-09T11:32:52.346Z,1008.14
2018-09-09T11:33:52.284Z,1008.13
2018-09-09T11:34:52.255Z,1008.11
2018-09-09T11:35:52.234Z,1008.12
2018-09-09T11:36:52.207Z,1008.08
2018-09-09T11:37:52.188Z,1008.10
2018-09-09T11:38:52.163Z,1008.02
2018-09-09T11:39:52.133Z,1008.00
2018-09-09T11:40:52.115Z,1007.92
2018-09-09T11:41:52.084Z,1007.90
2018-09-09T11:42:52.064Z,1007.89
2018-09-09T11:43:52.038Z,1007.92
2018-09-09T11:44:52.017Z,1007.95
2018-09-09T11:45:51.988Z,1007.96
2018-09-09T11:46:51.963Z,1007.96
2018-09-09T11:47:51.946Z,1007.92
2018-09-09T11:48:51.914Z,1007.90
2018-09-09T11:49:51.900Z,1007.91
2018-09-09T11:50:51.868Z,1007.91
2018-09-09T11:51:51.847Z,1007.98
2018-09-09T11:52:51.823Z,1007.90
2018-09-09T11:53:51.801Z,1007.86
2018-09-09T11:54:51.772Z,1007.89
2018-09-09T11:55:51.767Z,1007.88
2018-09-09T11:56:51.725Z,1007.93
2018-09-09T11:57:51.706Z,1007.87
2018-09-09T11:58:51.678Z,1007.89
2018-09-09T11:59:51.654Z,1007.89
2018-09-09T12:00:51.627Z,1007.91
2018-09-09T12:01:51.618Z,1007.90
2018-09-09T12:02:51.606Z,1007.84
2018-09-09T12:03:51.553Z,1007.83
2018-09-09T12:04:51.532Z,1007.85